sensor_id;sensor_type;location;lat;lon;timestamp;P1;durP1;ratioP1;P2;durP2;ratioP2
17741;SDS011;8993;51.822;-2.268;2022-09-11T00:03:03;4.18;;;2.06;;
17741;SDS011;8993;51.822;-2.268;2022-09-11T00:08:09;4.44;;;1.98;;
17741;SDS011;8993;51.822;-2.268;2022-09-11T00:13:13;7.65;;;3.10;;
17741;SDS011;8993;51.822;-2.268;2022-09-11T00:18:17;4.48;;;2.57;;
17741;SDS011;8993;51.822;-2.268;2022-09-11T00:23:21;5.84;;;2.85;;
17741;SDS011;8993;51.822;-2.268;2022-09-11T00:28:28;5.11;;;2.57;;
17741;SDS011;8993;51.822;-2.268;2022-09-11T00:33:32;5.56;;;2.89;;
17741;SDS011;8993;51.822;-2.268;2022-09-11T00:38:37;5.74;;;2.71;;
17741;SDS011;8993;51.822;-2.268;2022-09-11T00:43:57;12.07;;;5.43;;
17741;SDS011;8993;51.822;-2.268;2022-09-11T00:48:46;25.37;;;9.97;;
17741;SDS011;8993;51.822;-2.268;2022-09-11T00:53:50;24.77;;;9.37;;
17741;SDS011;8993;51.822;-2.268;2022-09-11T00:58:54;25.72;;;9.71;;
17741;SDS011;8993;51.822;-2.268;2022-09-11T01:03:59;26.22;;;9.11;;
17741;SDS011;8993;51.822;-2.268;2022-09-11T01:09:03;26.72;;;9.25;;
17741;SDS011;8993;51.822;-2.268;2022-09-11T01:14:08;27.69;;;9.50;;
17741;SDS011;8993;51.822;-2.268;2022-09-11T01:19:16;20.42;;;8.25;;
17741;SDS011;8993;51.822;-2.268;2022-09-11T01:24:18;23.45;;;8.96;;
17741;SDS011;8993;51.822;-2.268;2022-09-11T01:29:20;22.92;;;8.41;;
17741;SDS011;8993;51.822;-2.268;2022-09-11T01:34:25;22.05;;;8.37;;
17741;SDS011;8993;51.822;-2.268;2022-09-11T01:39:29;22.96;;;9.10;;
17741;SDS011;8993;51.822;-2.268;2022-09-11T01:44:34;20.54;;;7.65;;
17741;SDS011;8993;51.822;-2.268;2022-09-11T01:49:39;17.20;;;6.52;;
17741;SDS011;8993;51.822;-2.268;2022-09-11T01:54:43;13.77;;;5.71;;
17741;SDS011;8993;51.822;-2.268;2022-09-11T01:59:47;12.40;;;4.91;;
17741;SDS011;8993;51.822;-2.268;2022-09-11T02:04:51;13.06;;;5.52;;
17741;SDS011;8993;51.822;-2.268;2022-09-11T02:09:54;12.34;;;5.47;;
17741;SDS011;8993;51.822;-2.268;2022-09-11T02:15:00;10.30;;;5.16;;
17741;SDS011;8993;51.822;-2.268;2022-09-11T02:20:05;18.17;;;6.89;;
17741;SDS011;8993;51.822;-2.268;2022-09-11T02:25:10;24.70;;;9.51;;
17741;SDS011;8993;51.822;-2.268;2022-09-11T02:30:14;26.81;;;9.46;;
17741;SDS011;8993;51.822;-2.268;2022-09-11T02:35:19;22.18;;;7.50;;
17741;SDS011;8993;51.822;-2.268;2022-09-11T02:40:30;20.80;;;7.64;;
17741;SDS011;8993;51.822;-2.268;2022-09-11T02:45:31;25.26;;;9.62;;
17741;SDS011;8993;51.822;-2.268;2022-09-11T02:50:35;25.33;;;9.86;;
17741;SDS011;8993;51.822;-2.268;2022-09-11T02:55:40;13.61;;;6.78;;
17741;SDS011;8993;51.822;-2.268;2022-09-11T03:00:41;18.57;;;8.60;;
17741;SDS011;8993;51.822;-2.268;2022-09-11T03:05:45;21.99;;;10.21;;
17741;SDS011;8993;51.822;-2.268;2022-09-11T03:10:50;22.66;;;9.92;;
17741;SDS011;8993;51.822;-2.268;2022-09-11T03:15:54;28.26;;;11.82;;
17741;SDS011;8993;51.822;-2.268;2022-09-11T03:20:59;27.21;;;11.62;;
17741;SDS011;8993;51.822;-2.268;2022-09-11T03:26:03;28.66;;;11.72;;
17741;SDS011;8993;51.822;-2.268;2022-09-11T03:31:07;29.81;;;11.57;;
17741;SDS011;8993;51.822;-2.268;2022-09-11T03:36:11;31.93;;;12.51;;
17741;SDS011;8993;51.822;-2.268;2022-09-11T03:41:16;27.51;;;12.20;;
17741;SDS011;8993;51.822;-2.268;2022-09-11T03:46:20;21.99;;;10.73;;
17741;SDS011;8993;51.822;-2.268;2022-09-11T03:51:24;18.22;;;9.57;;
17741;SDS011;8993;51.822;-2.268;2022-09-11T03:56:29;16.48;;;9.21;;
17741;SDS011;8993;51.822;-2.268;2022-09-11T04:01:33;17.96;;;9.47;;
17741;SDS011;8993;51.822;-2.268;2022-09-11T04:06:38;20.43;;;9.41;;
17741;SDS011;8993;51.822;-2.268;2022-09-11T04:11:42;13.75;;;7.79;;
17741;SDS011;8993;51.822;-2.268;2022-09-11T04:16:46;12.26;;;7.42;;
17741;SDS011;8993;51.822;-2.268;2022-09-11T04:21:52;11.32;;;7.36;;
17741;SDS011;8993;51.822;-2.268;2022-09-11T04:26:56;13.16;;;6.95;;
17741;SDS011;8993;51.822;-2.268;2022-09-11T04:32:00;11.59;;;6.44;;
17741;SDS011;8993;51.822;-2.268;2022-09-11T04:37:04;11.21;;;6.32;;
17741;SDS011;8993;51.822;-2.268;2022-09-11T04:42:09;11.26;;;7.04;;
17741;SDS011;8993;51.822;-2.268;2022-09-11T04:47:13;12.05;;;6.86;;
17741;SDS011;8993;51.822;-2.268;2022-09-11T04:52:17;12.28;;;7.28;;
17741;SDS011;8993;51.822;-2.268;2022-09-11T04:57:21;14.65;;;8.31;;
17741;SDS011;8993;51.822;-2.268;2022-09-11T05:02:25;14.64;;;8.50;;
17741;SDS011;8993;51.822;-2.268;2022-09-11T05:07:29;15.75;;;10.49;;
17741;SDS011;8993;51.822;-2.268;2022-09-11T05:12:34;19.21;;;12.49;;
17741;SDS011;8993;51.822;-2.268;2022-09-11T05:17:38;28.37;;;17.22;;
17741;SDS011;8993;51.822;-2.268;2022-09-11T05:22:42;19.64;;;12.96;;
17741;SDS011;8993;51.822;-2.268;2022-09-11T05:27:47;17.64;;;12.34;;
17741;SDS011;8993;51.822;-2.268;2022-09-11T05:32:51;24.34;;;14.88;;
17741;SDS011;8993;51.822;-2.268;2022-09-11T05:37:55;31.09;;;17.44;;
17741;SDS011;8993;51.822;-2.268;2022-09-11T05:43:00;25.83;;;14.38;;
17741;SDS011;8993;51.822;-2.268;2022-09-11T05:48:04;27.17;;;14.93;;
17741;SDS011;8993;51.822;-2.268;2022-09-11T05:53:08;23.47;;;13.68;;
17741;SDS011;8993;51.822;-2.268;2022-09-11T05:58:13;26.18;;;14.77;;
17741;SDS011;8993;51.822;-2.268;2022-09-11T06:03:17;21.83;;;13.82;;
17741;SDS011;8993;51.822;-2.268;2022-09-11T06:08:21;22.44;;;13.84;;
17741;SDS011;8993;51.822;-2.268;2022-09-11T06:13:28;19.50;;;12.58;;
17741;SDS011;8993;51.822;-2.268;2022-09-11T06:18:31;24.76;;;14.13;;
17741;SDS011;8993;51.822;-2.268;2022-09-11T06:23:35;26.25;;;16.72;;
17741;SDS011;8993;51.822;-2.268;2022-09-11T06:28:39;28.28;;;16.54;;
17741;SDS011;8993;51.822;-2.268;2022-09-11T06:33:43;25.75;;;14.86;;
17741;SDS011;8993;51.822;-2.268;2022-09-11T06:38:51;24.69;;;14.75;;
17741;SDS011;8993;51.822;-2.268;2022-09-11T06:43:52;23.85;;;14.76;;
17741;SDS011;8993;51.822;-2.268;2022-09-11T06:48:56;22.57;;;14.51;;
17741;SDS011;8993;51.822;-2.268;2022-09-11T06:54:01;33.78;;;19.19;;
17741;SDS011;8993;51.822;-2.268;2022-09-11T06:59:05;66.68;;;29.76;;
17741;SDS011;8993;51.822;-2.268;2022-09-11T07:04:09;44.27;;;22.44;;
17741;SDS011;8993;51.822;-2.268;2022-09-11T07:09:13;47.52;;;22.69;;
17741;SDS011;8993;51.822;-2.268;2022-09-11T07:14:18;38.21;;;19.73;;
17741;SDS011;8993;51.822;-2.268;2022-09-11T07:19:22;34.43;;;21.12;;
17741;SDS011;8993;51.822;-2.268;2022-09-11T07:24:26;45.17;;;28.71;;
17741;SDS011;8993;51.822;-2.268;2022-09-11T07:29:32;53.59;;;33.60;;
17741;SDS011;8993;51.822;-2.268;2022-09-11T07:34:36;44.50;;;28.26;;
17741;SDS011;8993;51.822;-2.268;2022-09-11T07:39:40;38.48;;;25.15;;
17741;SDS011;8993;51.822;-2.268;2022-09-11T07:44:44;28.90;;;19.61;;
17741;SDS011;8993;51.822;-2.268;2022-09-11T07:49:49;29.72;;;19.40;;
17741;SDS011;8993;51.822;-2.268;2022-09-11T07:54:53;27.70;;;18.65;;
17741;SDS011;8993;51.822;-2.268;2022-09-11T07:59:57;36.56;;;25.11;;
17741;SDS011;8993;51.822;-2.268;2022-09-11T08:05:01;32.02;;;21.60;;
17741;SDS011;8993;51.822;-2.268;2022-09-11T08:10:06;34.99;;;25.11;;
17741;SDS011;8993;51.822;-2.268;2022-09-11T08:15:10;30.72;;;22.48;;
17741;SDS011;8993;51.822;-2.268;2022-09-11T08:20:15;28.41;;;19.64;;
17741;SDS011;8993;51.822;-2.268;2022-09-11T08:25:19;27.53;;;20.03;;
17741;SDS011;8993;51.822;-2.268;2022-09-11T08:30:24;22.29;;;16.53;;
17741;SDS011;8993;51.822;-2.268;2022-09-11T08:35:28;21.18;;;15.57;;
17741;SDS011;8993;51.822;-2.268;2022-09-11T08:40:34;20.69;;;15.14;;
17741;SDS011;8993;51.822;-2.268;2022-09-11T08:45:37;20.97;;;14.82;;
17741;SDS011;8993;51.822;-2.268;2022-09-11T08:50:41;21.50;;;15.42;;
17741;SDS011;8993;51.822;-2.268;2022-09-11T08:55:47;23.07;;;15.02;;
17741;SDS011;8993;51.822;-2.268;2022-09-11T09:00:53;19.94;;;14.77;;
17741;SDS011;8993;51.822;-2.268;2022-09-11T09:05:56;21.43;;;15.32;;
17741;SDS011;8993;51.822;-2.268;2022-09-11T09:11:01;20.56;;;14.64;;
17741;SDS011;8993;51.822;-2.268;2022-09-11T09:16:06;19.90;;;14.83;;
17741;SDS011;8993;51.822;-2.268;2022-09-11T09:21:10;20.40;;;13.94;;
17741;SDS011;8993;51.822;-2.268;2022-09-11T09:26:14;15.76;;;10.96;;
17741;SDS011;8993;51.822;-2.268;2022-09-11T09:31:19;16.62;;;11.46;;
17741;SDS011;8993;51.822;-2.268;2022-09-11T09:36:23;15.41;;;10.02;;
17741;SDS011;8993;51.822;-2.268;2022-09-11T09:46:34;10.29;;;6.79;;
17741;SDS011;8993;51.822;-2.268;2022-09-11T09:51:37;9.38;;;5.92;;
17741;SDS011;8993;51.822;-2.268;2022-09-11T09:56:42;11.27;;;5.83;;
17741;SDS011;8993;51.822;-2.268;2022-09-11T10:01:47;10.38;;;5.95;;
17741;SDS011;8993;51.822;-2.268;2022-09-11T10:06:51;9.78;;;4.79;;
17741;SDS011;8993;51.822;-2.268;2022-09-11T10:11:56;9.26;;;4.91;;
17741;SDS011;8993;51.822;-2.268;2022-09-11T10:17:00;9.73;;;4.81;;
17741;SDS011;8993;51.822;-2.268;2022-09-11T10:22:34;10.03;;;4.38;;
17741;SDS011;8993;51.822;-2.268;2022-09-11T10:27:08;9.03;;;4.66;;
17741;SDS011;8993;51.822;-2.268;2022-09-11T10:32:12;8.40;;;4.62;;
17741;SDS011;8993;51.822;-2.268;2022-09-11T10:37:20;9.79;;;5.11;;
17741;SDS011;8993;51.822;-2.268;2022-09-11T10:42:22;10.20;;;5.44;;
17741;SDS011;8993;51.822;-2.268;2022-09-11T10:47:26;10.64;;;6.95;;
17741;SDS011;8993;51.822;-2.268;2022-09-11T10:52:29;11.43;;;6.80;;
17741;SDS011;8993;51.822;-2.268;2022-09-11T10:57:36;11.37;;;7.94;;
17741;SDS011;8993;51.822;-2.268;2022-09-11T11:02:39;11.17;;;7.34;;
17741;SDS011;8993;51.822;-2.268;2022-09-11T11:12:51;9.93;;;5.75;;
17741;SDS011;8993;51.822;-2.268;2022-09-11T11:17:53;9.47;;;6.11;;
17741;SDS011;8993;51.822;-2.268;2022-09-11T11:23:04;9.43;;;6.20;;
17741;SDS011;8993;51.822;-2.268;2022-09-11T11:28:07;10.80;;;6.52;;
17741;SDS011;8993;51.822;-2.268;2022-09-11T11:33:17;11.16;;;7.81;;
17741;SDS011;8993;51.822;-2.268;2022-09-11T11:38:12;13.90;;;8.29;;
17741;SDS011;8993;51.822;-2.268;2022-09-11T11:43:15;12.55;;;8.16;;
17741;SDS011;8993;51.822;-2.268;2022-09-11T11:48:19;12.38;;;8.64;;
17741;SDS011;8993;51.822;-2.268;2022-09-11T11:53:23;11.35;;;7.43;;
17741;SDS011;8993;51.822;-2.268;2022-09-11T11:58:31;10.46;;;6.81;;
17741;SDS011;8993;51.822;-2.268;2022-09-11T12:03:33;11.58;;;7.15;;
17741;SDS011;8993;51.822;-2.268;2022-09-11T12:08:40;10.83;;;6.89;;
17741;SDS011;8993;51.822;-2.268;2022-09-11T12:13:40;9.53;;;6.70;;
17741;SDS011;8993;51.822;-2.268;2022-09-11T12:18:59;8.96;;;5.81;;
17741;SDS011;8993;51.822;-2.268;2022-09-11T12:24:48;9.53;;;6.94;;
17741;SDS011;8993;51.822;-2.268;2022-09-11T12:34:00;8.40;;;5.15;;
17741;SDS011;8993;51.822;-2.268;2022-09-11T12:39:14;8.13;;;4.75;;
17741;SDS011;8993;51.822;-2.268;2022-09-11T12:44:27;7.67;;;3.72;;
17741;SDS011;8993;51.822;-2.268;2022-09-11T12:49:14;6.51;;;3.05;;
17741;SDS011;8993;51.822;-2.268;2022-09-11T12:54:20;6.38;;;2.59;;
17741;SDS011;8993;51.822;-2.268;2022-09-11T12:59:23;4.74;;;1.85;;
17741;SDS011;8993;51.822;-2.268;2022-09-11T13:04:27;3.00;;;1.18;;
17741;SDS011;8993;51.822;-2.268;2022-09-11T13:14:48;3.00;;;0.65;;
17741;SDS011;8993;51.822;-2.268;2022-09-11T13:19:39;3.80;;;0.68;;
17741;SDS011;8993;51.822;-2.268;2022-09-11T13:24:43;3.03;;;0.60;;
17741;SDS011;8993;51.822;-2.268;2022-09-11T13:29:48;2.07;;;0.49;;
17741;SDS011;8993;51.822;-2.268;2022-09-11T13:34:53;2.33;;;0.65;;
17741;SDS011;8993;51.822;-2.268;2022-09-11T13:39:57;1.88;;;0.59;;
17741;SDS011;8993;51.822;-2.268;2022-09-11T13:45:02;1.86;;;0.48;;
17741;SDS011;8993;51.822;-2.268;2022-09-11T13:50:08;2.69;;;0.48;;
17741;SDS011;8993;51.822;-2.268;2022-09-11T13:55:11;1.89;;;0.48;;
17741;SDS011;8993;51.822;-2.268;2022-09-11T14:00:34;3.39;;;0.46;;
17741;SDS011;8993;51.822;-2.268;2022-09-11T14:05:19;2.30;;;0.54;;
17741;SDS011;8993;51.822;-2.268;2022-09-11T14:10:25;2.26;;;0.57;;
17741;SDS011;8993;51.822;-2.268;2022-09-11T14:15:30;3.01;;;0.58;;
17741;SDS011;8993;51.822;-2.268;2022-09-11T14:20:32;2.10;;;0.43;;
17741;SDS011;8993;51.822;-2.268;2022-09-11T14:25:36;2.06;;;0.52;;
17741;SDS011;8993;51.822;-2.268;2022-09-11T14:30:40;1.57;;;0.58;;
17741;SDS011;8993;51.822;-2.268;2022-09-11T14:40:53;2.72;;;0.66;;
17741;SDS011;8993;51.822;-2.268;2022-09-11T14:45:56;2.58;;;0.63;;
17741;SDS011;8993;51.822;-2.268;2022-09-11T14:51:00;2.62;;;0.47;;
17741;SDS011;8993;51.822;-2.268;2022-09-11T14:56:04;2.06;;;0.40;;
17741;SDS011;8993;51.822;-2.268;2022-09-11T15:01:08;3.39;;;0.57;;
17741;SDS011;8993;51.822;-2.268;2022-09-11T15:06:15;2.27;;;0.53;;
17741;SDS011;8993;51.822;-2.268;2022-09-11T15:11:17;1.69;;;0.52;;
17741;SDS011;8993;51.822;-2.268;2022-09-11T15:16:21;2.76;;;0.52;;
17741;SDS011;8993;51.822;-2.268;2022-09-11T15:21:26;2.05;;;0.55;;
17741;SDS011;8993;51.822;-2.268;2022-09-11T15:26:30;2.17;;;0.52;;
17741;SDS011;8993;51.822;-2.268;2022-09-11T15:31:34;1.73;;;0.51;;
17741;SDS011;8993;51.822;-2.268;2022-09-11T15:36:39;2.76;;;0.49;;
17741;SDS011;8993;51.822;-2.268;2022-09-11T15:41:43;2.62;;;0.46;;
17741;SDS011;8993;51.822;-2.268;2022-09-11T15:46:47;2.04;;;0.44;;
17741;SDS011;8993;51.822;-2.268;2022-09-11T15:51:51;2.30;;;0.51;;
17741;SDS011;8993;51.822;-2.268;2022-09-11T15:56:56;1.62;;;0.47;;
17741;SDS011;8993;51.822;-2.268;2022-09-11T16:02:00;1.63;;;0.45;;
17741;SDS011;8993;51.822;-2.268;2022-09-11T16:07:05;1.99;;;0.41;;
17741;SDS011;8993;51.822;-2.268;2022-09-11T16:12:09;1.61;;;0.43;;
17741;SDS011;8993;51.822;-2.268;2022-09-11T16:17:16;1.53;;;0.47;;
17741;SDS011;8993;51.822;-2.268;2022-09-11T16:22:21;2.26;;;0.48;;
17741;SDS011;8993;51.822;-2.268;2022-09-11T16:27:25;2.13;;;0.49;;
17741;SDS011;8993;51.822;-2.268;2022-09-11T16:32:29;2.40;;;0.48;;
17741;SDS011;8993;51.822;-2.268;2022-09-11T16:37:34;1.83;;;0.45;;
17741;SDS011;8993;51.822;-2.268;2022-09-11T16:42:38;1.99;;;0.46;;
17741;SDS011;8993;51.822;-2.268;2022-09-11T16:47:42;1.80;;;0.43;;
17741;SDS011;8993;51.822;-2.268;2022-09-11T16:52:48;2.85;;;0.52;;
17741;SDS011;8993;51.822;-2.268;2022-09-11T16:57:52;2.87;;;0.54;;
17741;SDS011;8993;51.822;-2.268;2022-09-11T17:02:57;1.48;;;0.40;;
17741;SDS011;8993;51.822;-2.268;2022-09-11T17:08:01;2.00;;;0.44;;
17741;SDS011;8993;51.822;-2.268;2022-09-11T17:13:05;2.20;;;0.53;;
17741;SDS011;8993;51.822;-2.268;2022-09-11T17:18:09;3.37;;;0.51;;
17741;SDS011;8993;51.822;-2.268;2022-09-11T17:23:14;2.25;;;0.49;;
17741;SDS011;8993;51.822;-2.268;2022-09-11T17:28:18;1.64;;;0.41;;
17741;SDS011;8993;51.822;-2.268;2022-09-11T17:33:22;2.21;;;0.45;;
17741;SDS011;8993;51.822;-2.268;2022-09-11T17:38:27;1.97;;;0.39;;
17741;SDS011;8993;51.822;-2.268;2022-09-11T17:43:31;2.74;;;0.39;;
17741;SDS011;8993;51.822;-2.268;2022-09-11T17:48:36;1.93;;;0.45;;
17741;SDS011;8993;51.822;-2.268;2022-09-11T17:53:40;1.96;;;0.50;;
17741;SDS011;8993;51.822;-2.268;2022-09-11T17:58:45;1.34;;;0.36;;
17741;SDS011;8993;51.822;-2.268;2022-09-11T18:03:48;2.73;;;0.48;;
17741;SDS011;8993;51.822;-2.268;2022-09-11T18:08:53;2.58;;;0.53;;
17741;SDS011;8993;51.822;-2.268;2022-09-11T18:13:57;2.06;;;0.50;;
17741;SDS011;8993;51.822;-2.268;2022-09-11T18:19:01;1.93;;;0.48;;
17741;SDS011;8993;51.822;-2.268;2022-09-11T18:24:06;2.60;;;0.62;;
17741;SDS011;8993;51.822;-2.268;2022-09-11T18:29:11;2.56;;;0.65;;
17741;SDS011;8993;51.822;-2.268;2022-09-11T18:34:15;2.74;;;0.63;;
17741;SDS011;8993;51.822;-2.268;2022-09-11T18:39:19;2.61;;;0.66;;
17741;SDS011;8993;51.822;-2.268;2022-09-11T18:44:23;2.88;;;0.71;;
17741;SDS011;8993;51.822;-2.268;2022-09-11T18:49:28;2.91;;;0.75;;
17741;SDS011;8993;51.822;-2.268;2022-09-11T18:54:32;3.08;;;0.72;;
17741;SDS011;8993;51.822;-2.268;2022-09-11T18:59:37;2.35;;;0.59;;
17741;SDS011;8993;51.822;-2.268;2022-09-11T19:04:41;3.61;;;0.67;;
17741;SDS011;8993;51.822;-2.268;2022-09-11T19:09:45;3.52;;;0.66;;
17741;SDS011;8993;51.822;-2.268;2022-09-11T19:14:49;2.87;;;0.60;;
17741;SDS011;8993;51.822;-2.268;2022-09-11T19:19:53;2.90;;;0.61;;
17741;SDS011;8993;51.822;-2.268;2022-09-11T19:24:58;2.37;;;0.52;;
17741;SDS011;8993;51.822;-2.268;2022-09-11T19:30:03;2.63;;;0.52;;
17741;SDS011;8993;51.822;-2.268;2022-09-11T19:35:07;3.92;;;0.61;;
17741;SDS011;8993;51.822;-2.268;2022-09-11T19:40:11;3.88;;;0.64;;
17741;SDS011;8993;51.822;-2.268;2022-09-11T19:45:17;3.14;;;0.64;;
17741;SDS011;8993;51.822;-2.268;2022-09-11T19:50:22;2.91;;;0.72;;
17741;SDS011;8993;51.822;-2.268;2022-09-11T19:55:26;3.03;;;0.83;;
17741;SDS011;8993;51.822;-2.268;2022-09-11T20:00:31;2.95;;;0.71;;
17741;SDS011;8993;51.822;-2.268;2022-09-11T20:05:38;2.95;;;0.76;;
17741;SDS011;8993;51.822;-2.268;2022-09-11T20:10:39;5.04;;;1.07;;
17741;SDS011;8993;51.822;-2.268;2022-09-11T20:15:44;3.68;;;1.03;;
17741;SDS011;8993;51.822;-2.268;2022-09-11T20:20:48;3.75;;;1.17;;
17741;SDS011;8993;51.822;-2.268;2022-09-11T20:25:52;2.68;;;1.05;;
17741;SDS011;8993;51.822;-2.268;2022-09-11T20:30:57;6.31;;;1.23;;
17741;SDS011;8993;51.822;-2.268;2022-09-11T20:36:01;4.50;;;1.22;;
17741;SDS011;8993;51.822;-2.268;2022-09-11T20:41:06;4.87;;;1.21;;
17741;SDS011;8993;51.822;-2.268;2022-09-11T20:46:10;4.95;;;1.16;;
17741;SDS011;8993;51.822;-2.268;2022-09-11T20:51:14;4.77;;;1.17;;
17741;SDS011;8993;51.822;-2.268;2022-09-11T20:56:19;2.88;;;1.23;;
17741;SDS011;8993;51.822;-2.268;2022-09-11T21:01:23;4.79;;;1.24;;
17741;SDS011;8993;51.822;-2.268;2022-09-11T21:06:28;5.05;;;1.42;;
17741;SDS011;8993;51.822;-2.268;2022-09-11T21:11:34;5.04;;;1.48;;
17741;SDS011;8993;51.822;-2.268;2022-09-11T21:16:40;4.73;;;1.39;;
17741;SDS011;8993;51.822;-2.268;2022-09-11T21:21:44;4.04;;;1.38;;
17741;SDS011;8993;51.822;-2.268;2022-09-11T21:26:48;4.36;;;1.47;;
17741;SDS011;8993;51.822;-2.268;2022-09-11T21:31:53;7.64;;;1.49;;
17741;SDS011;8993;51.822;-2.268;2022-09-11T21:36:57;4.61;;;1.40;;
17741;SDS011;8993;51.822;-2.268;2022-09-11T21:42:01;4.51;;;1.53;;
17741;SDS011;8993;51.822;-2.268;2022-09-11T21:47:06;5.78;;;1.63;;
17741;SDS011;8993;51.822;-2.268;2022-09-11T21:52:10;4.30;;;1.68;;
17741;SDS011;8993;51.822;-2.268;2022-09-11T21:57:15;4.82;;;1.75;;
17741;SDS011;8993;51.822;-2.268;2022-09-11T22:02:19;6.80;;;2.20;;
17741;SDS011;8993;51.822;-2.268;2022-09-11T22:07:23;6.98;;;2.45;;
17741;SDS011;8993;51.822;-2.268;2022-09-11T22:12:27;5.91;;;2.18;;
17741;SDS011;8993;51.822;-2.268;2022-09-11T22:17:32;6.30;;;2.52;;
17741;SDS011;8993;51.822;-2.268;2022-09-11T22:22:37;6.39;;;3.15;;
17741;SDS011;8993;51.822;-2.268;2022-09-11T22:27:43;7.80;;;3.59;;
17741;SDS011;8993;51.822;-2.268;2022-09-11T22:32:45;10.09;;;4.04;;
17741;SDS011;8993;51.822;-2.268;2022-09-11T22:37:50;9.28;;;3.87;;
17741;SDS011;8993;51.822;-2.268;2022-09-11T22:42:54;8.57;;;4.69;;
17741;SDS011;8993;51.822;-2.268;2022-09-11T22:47:58;8.89;;;4.60;;
17741;SDS011;8993;51.822;-2.268;2022-09-11T22:53:04;11.06;;;5.34;;
17741;SDS011;8993;51.822;-2.268;2022-09-11T22:58:08;12.16;;;5.52;;
17741;SDS011;8993;51.822;-2.268;2022-09-11T23:03:13;11.46;;;6.06;;
17741;SDS011;8993;51.822;-2.268;2022-09-11T23:08:17;11.81;;;5.88;;
17741;SDS011;8993;51.822;-2.268;2022-09-11T23:13:21;11.52;;;6.39;;
17741;SDS011;8993;51.822;-2.268;2022-09-11T23:18:26;9.92;;;6.07;;
17741;SDS011;8993;51.822;-2.268;2022-09-11T23:23:30;13.27;;;6.52;;
17741;SDS011;8993;51.822;-2.268;2022-09-11T23:28:35;12.65;;;6.35;;
17741;SDS011;8993;51.822;-2.268;2022-09-11T23:33:39;9.68;;;4.95;;
17741;SDS011;8993;51.822;-2.268;2022-09-11T23:38:43;10.35;;;4.84;;
17741;SDS011;8993;51.822;-2.268;2022-09-11T23:43:48;10.09;;;4.64;;
17741;SDS011;8993;51.822;-2.268;2022-09-11T23:48:52;9.73;;;5.11;;
17741;SDS011;8993;51.822;-2.268;2022-09-11T23:53:56;12.17;;;5.74;;
17741;SDS011;8993;51.822;-2.268;2022-09-11T23:59:01;10.73;;;5.57;;
